Time;durP1;ratioP1;P1;durP2;ratioP2;P2;SDS_P1;SDS_P2;PMS_P1;PMS_P2;Temp;Humidity;BMP_temperature;BMP_pressure;BME280_temperature;BME280_humidity;BME280_pressure;Samples;Min_cycle;Max_cycle;Signal;HPM_P1;HPM_P2
2022/11/05 00:09:31;;;;;;;72.47;52.42;;;16.20;77.90;;;;;;4937949;28;90576;-49
2022/11/05 00:17:28;;;;;;;74.13;52.50;;;16.20;77.80;;;;;;4935912;28;91097;-52
2022/11/05 00:19:54;;;;;;;72.43;52.00;;;16.30;77.80;;;;;;4939249;28;91192;-54
2022/11/05 00:25:15;;;;;;;71.72;51.70;;;16.20;77.80;;;;;;4944632;28;90251;-49
2022/11/05 00:27:42;;;;;;;74.07;52.78;;;16.20;77.60;;;;;;4935399;28;90907;-50
2022/11/05 00:30:08;;;;;;;72.28;52.20;;;16.20;77.80;;;;;;4942752;28;90055;-48
2022/11/05 00:32:34;;;;;;;72.82;52.55;;;16.20;77.60;;;;;;4946173;28;89969;-52
2022/11/05 00:35:00;;;;;;;72.38;51.97;;;16.20;77.50;;;;;;4941152;28;90465;-48
2022/11/05 00:37:29;;;;;;;73.22;52.28;;;16.10;77.50;;;;;;4939859;28;90396;-50
2022/11/05 00:39:54;;;;;;;73.68;52.45;;;16.10;77.30;;;;;;4947785;28;89709;-47
2022/11/05 00:45:05;;;;;;;73.78;52.45;;;16.10;77.50;;;;;;4953875;28;91374;-52
2022/11/05 00:50:17;;;;;;;72.30;52.17;;;16.10;77.30;;;;;;4943134;28;90794;-52
2022/11/05 00:52:55;;;;;;;70.95;52.53;;;16.10;77.30;;;;;;4948094;28;91772;-52
2022/11/05 00:55:43;;;;;;;72.28;52.00;;;16.10;77.30;;;;;;4952080;28;91280;-52
2022/11/05 00:58:11;;;;;;;72.45;52.55;;;16.10;77.40;;;;;;4958791;28;90209;-52
2022/11/05 01:00:39;;;;;;;71.28;51.67;;;16.10;77.30;;;;;;4946191;28;90557;-48
2022/11/05 01:03:11;;;;;;;71.90;51.80;;;16.00;76.90;;;;;;4951643;28;89028;-51
2022/11/05 01:05:39;;;;;;;71.40;52.05;;;16.00;77.10;;;;;;4947112;28;93515;-51
2022/11/05 01:08:05;;;;;;;69.88;51.50;;;16.00;77.10;;;;;;4958452;28;90587;-52
2022/11/05 01:10:31;;;;;;;71.70;52.05;;;16.00;76.90;;;;;;4953331;28;90868;-50
2022/11/05 01:12:57;;;;;;;71.03;52.00;;;16.00;77.10;;;;;;4939924;28;91017;-53
2022/11/05 01:15:23;;;;;;;71.10;52.25;;;16.00;77.00;;;;;;4950714;28;91628;-49
2022/11/05 01:17:51;;;;;;;71.88;51.85;;;16.00;76.90;;;;;;4949347;28;92735;-50
2022/11/05 01:20:17;;;;;;;70.80;51.95;;;16.00;77.00;;;;;;4944288;28;89893;-52
2022/11/05 01:22:42;;;;;;;72.25;52.80;;;16.00;76.90;;;;;;4950248;28;91035;-52
2022/11/05 01:25:08;;;;;;;70.93;52.45;;;16.00;76.90;;;;;;4947649;28;90729;-49
2022/11/05 01:27:35;;;;;;;70.30;51.63;;;15.90;77.10;;;;;;4953402;28;89912;-53
2022/11/05 01:30:01;;;;;;;71.50;52.38;;;15.90;76.90;;;;;;4940743;28;91655;-50
2022/11/05 01:32:26;;;;;;;71.82;51.80;;;15.90;77.00;;;;;;4943157;28;89839;-52
2022/11/05 01:34:52;;;;;;;70.53;52.13;;;15.90;76.90;;;;;;4950935;28;92162;-49
2022/11/05 01:37:18;;;;;;;71.57;51.38;;;15.90;76.80;;;;;;4947413;28;91819;-48
2022/11/05 01:39:43;;;;;;;71.35;52.08;;;15.90;76.90;;;;;;4951693;28;90868;-53
2022/11/05 01:42:21;;;;;;;70.72;52.50;;;15.90;76.40;;;;;;4944444;28;92586;-48
2022/11/05 01:45:23;;;;;;;69.68;51.90;;;15.90;76.80;;;;;;4951444;28;90218;-48
2022/11/05 01:47:57;;;;;;;69.78;52.00;;;15.90;76.70;;;;;;4944206;28;91262;-52
2022/11/05 01:50:35;;;;;;;70.97;52.13;;;15.90;76.70;;;;;;4952527;28;90634;-48
2022/11/05 01:53:22;;;;;;;70.20;51.92;;;15.80;76.80;;;;;;4955958;28;89131;-52
2022/11/05 01:56:25;;;;;;;69.90;51.47;;;15.90;76.70;;;;;;4948378;28;91387;-52
2022/11/05 01:59:08;;;;;;;70.40;51.53;;;15.90;76.70;;;;;;4952608;28;90095;-49
2022/11/05 02:01:34;;;;;;;72.03;51.90;;;15.90;76.70;;;;;;4945025;28;91431;-51
2022/11/05 02:04:03;;;;;;;70.28;51.47;;;15.90;76.60;;;;;;4950389;28;89621;-50
2022/11/05 02:06:33;;;;;;;69.82;52.10;;;15.90;76.50;;;;;;4946481;28;89529;-47
2022/11/05 02:09:18;;;;;;;70.13;52.00;;;15.80;76.60;;;;;;4946816;28;90460;-53
2022/11/05 02:11:45;;;;;;;70.60;52.05;;;15.90;76.50;;;;;;4939765;28;96352;-53
2022/11/05 02:14:11;;;;;;;69.70;51.55;;;15.90;76.50;;;;;;4952936;28;91199;-50
2022/11/05 02:16:39;;;;;;;70.47;52.03;;;15.90;76.40;;;;;;4946515;28;95201;-51
2022/11/05 02:19:26;;;;;;;71.35;52.00;;;15.90;76.10;;;;;;4944396;28;91317;-48
2022/11/05 02:22:00;;;;;;;69.97;51.78;;;15.90;76.40;;;;;;4939504;28;89941;-51
2022/11/05 02:24:45;;;;;;;70.80;52.63;;;15.90;76.30;;;;;;4945178;28;89612;-48
2022/11/05 02:27:34;;;;;;;70.13;51.83;;;15.90;76.20;;;;;;4960665;28;91694;-50
2022/11/05 02:30:36;;;;;;;72.60;52.03;;;15.90;76.00;;;;;;4943465;28;91333;-54
2022/11/05 02:33:25;;;;;;;71.45;52.60;;;15.90;76.30;;;;;;4946361;28;92762;-51
2022/11/05 02:36:09;;;;;;;70.28;51.78;;;15.90;76.20;;;;;;4946651;28;90021;-52
2022/11/05 02:39:09;;;;;;;71.20;52.60;;;15.90;76.10;;;;;;4946698;28;89965;-50
2022/11/05 02:41:41;;;;;;;68.60;51.15;;;15.90;76.20;;;;;;4955695;28;89751;-50
2022/11/05 02:44:24;;;;;;;70.38;51.63;;;15.90;76.10;;;;;;4949280;28;90172;-52
2022/11/05 02:47:11;;;;;;;69.60;51.63;;;15.80;76.00;;;;;;4949592;28;91278;-52
2022/11/05 02:49:36;;;;;;;70.22;51.55;;;15.90;76.10;;;;;;4945571;28;90320;-52
2022/11/05 02:52:10;;;;;;;70.05;52.28;;;15.90;76.10;;;;;;4951344;28;90783;-48
2022/11/05 02:54:56;;;;;;;69.88;51.72;;;15.80;75.90;;;;;;4939497;28;91024;-48
2022/11/05 02:57:22;;;;;;;69.57;51.25;;;15.80;76.00;;;;;;4944806;28;89746;-49
2022/11/05 02:59:47;;;;;;;69.43;51.88;;;15.80;75.90;;;;;;4946387;28;90494;-52
2022/11/05 03:02:13;;;;;;;71.50;51.63;;;15.80;75.90;;;;;;4945547;28;90377;-50
2022/11/05 03:04:39;;;;;;;69.60;51.80;;;15.80;75.70;;;;;;4950615;28;90103;-49
2022/11/05 03:07:48;;;;;;;70.38;51.65;;;15.80;75.80;;;;;;4944491;28;95538;-48
2022/11/05 03:10:32;;;;;;;70.45;51.25;;;15.80;75.90;;;;;;4940723;28;96262;-48
2022/11/05 03:13:16;;;;;;;69.63;51.60;;;15.80;75.90;;;;;;4941445;28;89875;-49
2022/11/05 03:15:49;;;;;;;68.90;51.05;;;15.80;75.90;;;;;;4944983;28;90166;-53
2022/11/05 03:18:39;;;;;;;68.72;51.40;;;15.70;75.90;;;;;;4949044;28;92922;-48
2022/11/05 03:21:42;;;;;;;70.07;51.58;;;15.80;75.90;;;;;;4949533;28;93558;-53
2022/11/05 03:24:19;;;;;;;69.40;51.60;;;15.70;75.90;;;;;;4932918;28;90106;-51
2022/11/05 03:26:59;;;;;;;69.18;51.53;;;15.80;76.00;;;;;;4944220;28;90050;-52
2022/11/05 03:29:32;;;;;;;68.50;51.08;;;15.80;75.90;;;;;;4941399;28;89799;-53
2022/11/05 03:32:00;;;;;;;69.38;51.90;;;15.70;75.90;;;;;;4940713;28;90071;-51
2022/11/05 03:34:30;;;;;;;69.35;51.17;;;15.70;75.80;;;;;;4948611;28;91967;-49
2022/11/05 03:36:57;;;;;;;68.97;51.20;;;15.70;75.70;;;;;;4935866;28;90755;-48
2022/11/05 03:39:34;;;;;;;69.43;51.15;;;15.70;75.90;;;;;;4943551;28;90610;-52
2022/11/05 03:42:03;;;;;;;68.93;50.85;;;15.70;75.90;;;;;;4956633;28;89822;-50
2022/11/05 03:44:33;;;;;;;68.93;51.33;;;15.70;75.70;;;;;;4944487;28;90974;-50
2022/11/05 03:47:05;;;;;;;69.25;51.45;;;15.70;75.70;;;;;;4944287;28;92832;-51
2022/11/05 03:50:10;;;;;;;69.85;51.78;;;15.70;75.80;;;;;;4932931;28;91107;-48
2022/11/05 03:52:44;;;;;;;70.30;51.38;;;15.70;75.80;;;;;;4946377;28;90179;-53
2022/11/05 03:55:10;;;;;;;69.57;51.20;;;15.70;75.70;;;;;;4945810;28;90508;-50
2022/11/05 03:57:40;;;;;;;69.85;51.40;;;15.60;75.80;;;;;;4951935;28;89578;-53
2022/11/05 04:00:08;;;;;;;69.70;51.72;;;15.60;75.60;;;;;;4942255;28;95133;-53
2022/11/05 04:02:33;;;;;;;69.63;51.78;;;15.60;75.70;;;;;;4947602;28;91995;-51
2022/11/05 04:04:59;;;;;;;69.40;51.30;;;15.60;75.70;;;;;;4940778;28;89493;-53
2022/11/05 04:18:26;;;;;;;69.53;52.00;;;15.60;75.70;;;;;;4929118;28;91124;-50
2022/11/05 04:26:22;;;;;;;68.15;51.28;;;15.60;75.80;;;;;;4947840;28;90961;-52
2022/11/05 04:31:33;;;;;;;69.28;51.03;;;15.60;75.50;;;;;;4944250;28;89387;-49
2022/11/05 04:33:59;;;;;;;68.78;51.50;;;15.50;75.60;;;;;;4944693;28;90789;-54
2022/11/05 04:36:24;;;;;;;70.13;51.47;;;15.50;75.50;;;;;;4955386;28;90088;-48
2022/11/05 04:38:50;;;;;;;68.20;51.45;;;15.50;75.50;;;;;;4932953;28;95450;-51
2022/11/05 04:41:16;;;;;;;68.65;51.15;;;15.50;75.60;;;;;;4936791;28;91706;-49
2022/11/05 04:43:43;;;;;;;69.82;51.53;;;15.50;75.60;;;;;;4941196;28;90979;-50
2022/11/05 04:46:09;;;;;;;69.32;51.28;;;15.50;75.70;;;;;;4946980;28;95215;-51
2022/11/05 04:48:36;;;;;;;69.05;51.10;;;15.50;75.70;;;;;;4935389;28;89598;-52
2022/11/05 04:51:02;;;;;;;70.75;51.97;;;15.50;75.50;;;;;;4938297;28;94803;-54
2022/11/05 04:53:28;;;;;;;68.45;50.88;;;15.50;75.50;;;;;;4946426;28;90058;-48
2022/11/05 04:55:53;;;;;;;69.85;51.70;;;15.50;75.60;;;;;;4938153;28;90440;-54
2022/11/05 04:58:19;;;;;;;69.00;51.40;;;15.40;75.50;;;;;;4932462;28;90461;-52
2022/11/05 05:00:45;;;;;;;69.68;51.97;;;15.50;75.60;;;;;;4947014;28;91416;-54
2022/11/05 05:03:10;;;;;;;69.05;51.63;;;15.50;75.50;;;;;;4947736;28;90883;-53
2022/11/05 05:05:36;;;;;;;68.15;51.20;;;15.40;75.40;;;;;;4942183;28;94223;-53
2022/11/05 05:08:03;;;;;;;68.55;50.72;;;15.40;75.50;;;;;;4950279;28;90325;-50
2022/11/05 05:10:30;;;;;;;68.80;51.58;;;15.40;75.50;;;;;;4952433;28;90275;-53
2022/11/05 05:12:55;;;;;;;68.57;50.88;;;15.40;75.30;;;;;;4957481;28;93870;-53
2022/11/05 05:15:21;;;;;;;69.13;51.20;;;15.40;75.40;;;;;;4946709;28;90128;-54
2022/11/05 05:17:51;;;;;;;69.95;51.70;;;15.40;75.50;;;;;;4944850;28;90185;-53
2022/11/05 05:23:02;;;;;;;68.85;51.30;;;15.40;75.30;;;;;;4954394;28;89948;-52
2022/11/05 05:25:28;;;;;;;69.20;51.13;;;15.40;75.40;;;;;;4947833;28;90872;-53
2022/11/05 05:27:57;;;;;;;68.63;51.03;;;15.40;75.40;;;;;;4937852;28;91030;-52
2022/11/05 05:30:22;;;;;;;69.22;51.45;;;15.30;75.30;;;;;;4945851;28;89577;-53
2022/11/05 05:32:48;;;;;;;68.38;51.17;;;15.30;75.20;;;;;;4957940;28;91271;-52
2022/11/05 05:35:14;;;;;;;68.47;51.40;;;15.30;75.30;;;;;;4933048;28;93910;-52
2022/11/05 05:37:40;;;;;;;69.60;51.40;;;15.30;75.30;;;;;;4943671;28;90646;-52
2022/11/05 05:40:06;;;;;;;68.68;51.72;;;15.30;75.10;;;;;;4946608;28;89896;-52
2022/11/05 05:42:32;;;;;;;67.72;51.15;;;15.30;75.10;;;;;;4936824;28;89902;-53
2022/11/05 05:44:58;;;;;;;67.82;50.92;;;15.30;75.30;;;;;;4937036;28;89171;-51
2022/11/05 05:47:23;;;;;;;68.57;51.53;;;15.30;75.20;;;;;;4952108;28;90469;-50
2022/11/05 05:49:49;;;;;;;68.55;51.22;;;15.30;75.20;;;;;;4954557;28;89822;-53
2022/11/05 05:52:15;;;;;;;67.65;50.83;;;15.30;75.30;;;;;;4943099;28;91081;-53
2022/11/05 05:54:40;;;;;;;69.10;51.42;;;15.30;75.20;;;;;;4940362;28;90240;-51
2022/11/05 05:57:06;;;;;;;68.28;51.10;;;15.30;75.10;;;;;;4949390;28;89932;-52
2022/11/05 05:59:32;;;;;;;68.07;50.78;;;15.20;75.10;;;;;;4945645;28;92572;-52
2022/11/05 06:01:57;;;;;;;68.15;50.85;;;15.20;75.10;;;;;;4943491;28;90439;-52
2022/11/05 06:04:23;;;;;;;68.63;51.38;;;15.20;75.20;;;;;;4949311;28;91345;-53
2022/11/05 06:06:48;;;;;;;68.07;50.67;;;15.20;75.10;;;;;;4955448;28;92338;-49
2022/11/05 06:09:14;;;;;;;68.32;51.15;;;15.20;75.00;;;;;;4951735;28;89128;-55
2022/11/05 06:11:40;;;;;;;68.30;51.05;;;15.20;75.00;;;;;;4949406;28;94842;-54
2022/11/05 06:14:09;;;;;;;68.82;51.08;;;15.20;75.00;;;;;;4953635;28;90673;-50
2022/11/05 06:16:37;;;;;;;67.65;50.80;;;15.20;75.10;;;;;;4952532;28;91110;-51
2022/11/05 06:19:03;;;;;;;68.43;50.92;;;15.20;75.00;;;;;;4947871;28;92282;-52
2022/11/05 06:21:29;;;;;;;69.55;51.33;;;15.20;75.00;;;;;;4946922;28;90070;-50
2022/11/05 06:23:55;;;;;;;69.05;51.20;;;15.20;75.10;;;;;;4953501;28;90297;-52
2022/11/05 06:26:20;;;;;;;68.88;51.05;;;15.20;75.00;;;;;;4942797;28;90239;-55
2022/11/05 06:28:46;;;;;;;68.95;50.67;;;15.20;75.10;;;;;;4948663;28;92683;-50
2022/11/05 06:31:13;;;;;;;68.97;51.05;;;15.20;75.00;;;;;;4941950;28;93517;-52
2022/11/05 06:33:39;;;;;;;68.10;50.38;;;15.20;74.90;;;;;;4950546;28;89849;-51
2022/11/05 06:36:06;;;;;;;69.05;51.45;;;15.20;75.00;;;;;;4940788;28;90890;-52
2022/11/05 06:38:34;;;;;;;68.45;51.60;;;15.20;74.70;;;;;;4952603;28;92548;-52
2022/11/05 06:41:00;;;;;;;67.53;51.10;;;15.20;74.80;;;;;;4943271;28;91216;-49
2022/11/05 06:43:29;;;;;;;68.28;50.95;;;15.20;74.80;;;;;;4943322;28;91761;-52
2022/11/05 06:45:55;;;;;;;68.05;51.08;;;15.20;74.70;;;;;;4957984;28;89541;-50
2022/11/05 06:48:21;;;;;;;69.10;51.17;;;15.20;74.50;;;;;;4939733;28;91093;-51
2022/11/05 06:50:46;;;;;;;67.45;50.95;;;15.20;74.70;;;;;;4945977;28;90072;-49
2022/11/05 06:53:12;;;;;;;67.40;50.83;;;15.20;74.60;;;;;;4944551;28;90076;-54
2022/11/05 06:55:38;;;;;;;68.72;51.45;;;15.20;74.60;;;;;;4942660;28;90981;-52
2022/11/05 06:58:04;;;;;;;67.55;51.13;;;15.20;74.60;;;;;;4937073;28;91967;-50
2022/11/05 07:00:29;;;;;;;68.30;50.80;;;15.20;74.90;;;;;;4948538;28;90654;-53
2022/11/05 07:03:02;;;;;;;68.80;50.90;;;15.20;74.30;;;;;;4948461;28;90622;-53
2022/11/05 07:05:28;;;;;;;69.65;51.10;;;15.20;73.90;;;;;;4953558;28;92057;-49
2022/11/05 07:07:54;;;;;;;70.78;51.75;;;15.30;72.60;;;;;;4945185;28;90845;-52
2022/11/05 07:10:19;;;;;;;68.65;51.47;;;15.40;72.30;;;;;;4949416;28;91501;-48
2022/11/05 07:12:45;;;;;;;69.30;51.22;;;15.40;72.10;;;;;;4945241;28;89776;-53
2022/11/05 07:15:11;;;;;;;69.38;52.17;;;15.40;72.00;;;;;;4943214;28;93467;-52
2022/11/05 07:17:38;;;;;;;70.07;51.88;;;15.40;72.00;;;;;;4954959;28;90146;-53
2022/11/05 07:20:05;;;;;;;70.60;51.33;;;15.30;71.70;;;;;;4946757;28;90987;-52
2022/11/05 07:22:33;;;;;;;73.53;54.65;;;15.30;72.00;;;;;;4943718;28;91215;-53
2022/11/05 07:24:58;;;;;;;74.05;54.53;;;15.20;72.10;;;;;;4945549;28;92128;-49
2022/11/05 07:27:24;;;;;;;72.85;54.55;;;15.20;72.00;;;;;;4945108;28;89960;-50
2022/11/05 07:29:50;;;;;;;72.93;54.30;;;15.20;72.40;;;;;;4937559;28;95119;-49
2022/11/05 07:32:15;;;;;;;72.18;54.17;;;15.20;72.20;;;;;;4926140;28;93088;-51
2022/11/05 07:34:41;;;;;;;72.55;54.53;;;15.20;72.40;;;;;;4946078;28;90138;-51
2022/11/05 07:37:07;;;;;;;74.00;54.53;;;15.30;72.40;;;;;;4939493;28;89903;-50
2022/11/05 07:39:33;;;;;;;71.53;53.88;;;15.30;72.30;;;;;;4939664;28;90926;-53
2022/11/05 07:41:58;;;;;;;73.90;53.20;;;15.30;72.20;;;;;;4945508;28;90443;-49
2022/11/05 07:44:24;;;;;;;71.03;53.78;;;15.40;72.30;;;;;;4944762;28;94047;-49
2022/11/05 07:46:50;;;;;;;72.35;53.90;;;15.40;72.30;;;;;;4944120;28;92518;-52
2022/11/05 07:49:17;;;;;;;72.03;54.03;;;15.50;72.20;;;;;;4936645;28;91117;-49
2022/11/05 07:51:42;;;;;;;75.22;53.60;;;15.40;72.10;;;;;;4932008;28;90585;-50
2022/11/05 07:54:08;;;;;;;70.60;53.08;;;15.50;72.00;;;;;;4941142;28;91332;-51
2022/11/05 07:56:34;;;;;;;70.43;53.22;;;15.50;72.10;;;;;;4940639;28;90009;-52
2022/11/05 07:58:59;;;;;;;69.88;52.63;;;15.50;72.10;;;;;;4936333;28;95382;-52
2022/11/05 08:01:25;;;;;;;70.68;52.83;;;15.50;72.10;;;;;;4940586;28;90086;-51
2022/11/05 08:03:51;;;;;;;72.28;53.17;;;15.50;72.20;;;;;;4936349;28;95016;-48
2022/11/05 08:06:16;;;;;;;71.57;53.53;;;15.60;72.30;;;;;;4929703;28;93405;-52
2022/11/05 08:08:42;;;;;;;72.60;54.35;;;15.60;72.20;;;;;;4929435;28;91709;-50
2022/11/05 08:11:09;;;;;;;72.10;53.53;;;15.70;72.30;;;;;;4938915;28;90839;-53
2022/11/05 08:13:35;;;;;;;71.07;53.08;;;15.70;72.20;;;;;;4942506;28;90437;-53
2022/11/05 08:16:02;;;;;;;71.38;52.90;;;15.70;72.20;;;;;;4940929;28;92569;-53
2022/11/05 08:18:32;;;;;;;73.65;52.78;;;15.70;72.20;;;;;;4932243;28;91678;-46
2022/11/05 08:21:01;;;;;;;75.25;52.90;;;15.80;72.80;;;;;;4939267;28;91252;-50
2022/11/05 08:23:28;;;;;;;74.13;52.55;;;16.00;73.00;;;;;;4940348;28;91990;-47
2022/11/05 08:25:55;;;;;;;77.35;52.72;;;16.30;71.30;;;;;;4936405;28;91166;-46
2022/11/05 08:28:22;;;;;;;74.00;52.90;;;16.50;70.00;;;;;;4933571;28;90688;-49
2022/11/05 08:30:49;;;;;;;72.38;52.58;;;16.70;70.00;;;;;;4944289;28;90788;-50
2022/11/05 08:33:15;;;;;;;76.78;52.75;;;16.70;70.50;;;;;;4932540;28;94595;-50
2022/11/05 08:35:41;;;;;;;75.53;53.22;;;16.80;70.20;;;;;;4938585;28;92371;-46
2022/11/05 08:38:09;;;;;;;74.82;53.60;;;17.00;69.40;;;;;;4942121;28;92778;-46
2022/11/05 08:40:36;;;;;;;72.65;53.45;;;17.00;68.70;;;;;;4942599;28;91065;-53
2022/11/05 08:43:04;;;;;;;73.10;52.85;;;17.20;68.10;;;;;;4943580;28;90861;-52
2022/11/05 08:45:30;;;;;;;73.70;53.17;;;17.20;67.50;;;;;;4935675;28;90352;-48
2022/11/05 08:48:06;;;;;;;74.80;52.58;;;17.40;67.30;;;;;;4944817;28;95609;-55
2022/11/05 08:50:33;;;;;;;71.68;52.88;;;17.40;67.40;;;;;;4942871;28;90863;-48
2022/11/05 08:52:58;;;;;;;72.05;52.55;;;17.40;66.60;;;;;;4935400;28;89881;-51
2022/11/05 08:55:24;;;;;;;74.03;52.53;;;17.40;67.00;;;;;;4926653;28;90932;-49
2022/11/05 08:57:58;;;;;;;75.18;52.83;;;17.50;66.60;;;;;;4935249;28;92150;-50
2022/11/05 09:00:25;;;;;;;72.53;52.53;;;17.40;66.80;;;;;;4938482;28;90070;-46
2022/11/05 09:02:51;;;;;;;74.90;52.67;;;17.50;66.40;;;;;;4935031;28;92472;-50
2022/11/05 09:05:17;;;;;;;72.10;52.40;;;17.60;67.20;;;;;;4936008;28;93391;-48
2022/11/05 09:07:43;;;;;;;71.80;52.20;;;17.60;65.80;;;;;;4940597;28;91492;-47
2022/11/05 09:10:09;;;;;;;72.10;52.47;;;17.50;66.00;;;;;;4937395;28;90228;-47
2022/11/05 09:12:34;;;;;;;73.55;52.58;;;17.50;65.90;;;;;;4949290;28;89894;-44
2022/11/05 09:15:00;;;;;;;72.38;52.53;;;17.50;66.00;;;;;;4940885;28;93160;-46
2022/11/05 09:17:26;;;;;;;71.35;52.22;;;17.50;65.90;;;;;;4945524;28;91626;-46
2022/11/05 09:19:51;;;;;;;74.80;52.60;;;17.50;65.90;;;;;;4939333;28;89899;-46
2022/11/05 09:22:17;;;;;;;74.57;52.38;;;17.60;66.20;;;;;;4941106;28;90346;-51
2022/11/05 09:24:46;;;;;;;71.43;51.97;;;17.60;66.10;;;;;;4935892;28;91894;-48
2022/11/05 09:27:13;;;;;;;71.47;52.03;;;17.60;66.20;;;;;;4944766;28;90270;-50
2022/11/05 09:29:39;;;;;;;76.63;51.65;;;17.70;66.20;;;;;;4942402;28;91206;-49
2022/11/05 09:32:05;;;;;;;72.00;52.35;;;17.70;66.10;;;;;;4931005;28;92560;-45
2022/11/05 09:34:31;;;;;;;75.63;52.42;;;17.80;66.20;;;;;;4955301;28;89877;-45
2022/11/05 09:36:57;;;;;;;73.18;52.08;;;17.80;66.50;;;;;;4951498;28;90959;-46
2022/11/05 09:39:23;;;;;;;73.97;52.22;;;17.90;66.70;;;;;;4936086;28;90447;-45
2022/11/05 09:41:51;;;;;;;72.35;51.97;;;17.80;66.90;;;;;;4934586;28;90090;-49
2022/11/05 09:44:46;;;;;;;72.35;51.42;;;17.90;66.70;;;;;;4942082;28;89842;-48
2022/11/05 09:47:19;;;;;;;73.65;52.53;;;17.90;66.10;;;;;;4938324;28;92607;-48
2022/11/05 09:49:50;;;;;;;71.47;51.88;;;17.90;66.60;;;;;;4938217;28;89997;-47
2022/11/05 09:52:23;;;;;;;74.25;51.40;;;17.90;66.20;;;;;;4942548;28;91630;-46
2022/11/05 09:54:49;;;;;;;73.60;51.42;;;17.90;66.60;;;;;;4942698;28;89929;-46
2022/11/05 09:57:47;;;;;;;74.15;51.67;;;17.90;66.70;;;;;;4940167;28;91900;-50
2022/11/05 10:00:17;;;;;;;73.82;52.03;;;18.00;66.80;;;;;;4939061;28;91241;-51
2022/11/05 10:02:54;;;;;;;73.32;52.03;;;18.00;66.50;;;;;;4946195;28;89693;-50
2022/11/05 10:05:23;;;;;;;78.05;51.63;;;18.10;66.40;;;;;;4943787;28;95982;-45
2022/11/05 10:08:10;;;;;;;74.38;52.05;;;18.10;66.30;;;;;;4939978;28;89914;-46
2022/11/05 10:10:42;;;;;;;73.15;51.90;;;18.10;66.40;;;;;;4942097;28;90854;-49
2022/11/05 10:13:19;;;;;;;72.47;51.80;;;18.10;66.50;;;;;;4947266;28;90256;-46
2022/11/05 10:16:15;;;;;;;73.00;52.05;;;18.00;66.40;;;;;;4941344;28;94329;-44
2022/11/05 10:18:46;;;;;;;86.25;52.28;;;18.00;66.00;;;;;;4933568;28;94296;-52
2022/11/05 10:21:18;;;;;;;72.00;52.10;;;18.00;66.00;;;;;;4943224;28;90712;-53
2022/11/05 10:23:45;;;;;;;73.70;52.83;;;17.90;66.20;;;;;;4937628;28;92317;-48
2022/11/05 10:26:14;;;;;;;75.40;52.13;;;17.90;66.10;;;;;;4938740;28;90445;-47
2022/11/05 10:28:40;;;;;;;74.82;53.03;;;17.90;66.20;;;;;;4948113;28;90089;-50
2022/11/05 10:31:19;;;;;;;77.72;53.10;;;18.00;66.30;;;;;;4943860;28;90774;-53
2022/11/05 10:33:58;;;;;;;76.40;52.63;;;18.10;66.20;;;;;;4942388;28;89907;-50
2022/11/05 10:36:28;;;;;;;77.03;53.05;;;18.10;66.00;;;;;;4952395;28;89965;-49
2022/11/05 10:39:11;;;;;;;77.60;52.80;;;18.20;65.80;;;;;;4946254;28;90105;-45
2022/11/05 10:41:42;;;;;;;76.70;52.75;;;18.20;65.80;;;;;;4949772;28;92002;-46
2022/11/05 10:44:17;;;;;;;77.10;53.08;;;18.20;66.00;;;;;;4938189;28;90217;-50
2022/11/05 10:47:09;;;;;;;77.78;53.65;;;18.20;65.90;;;;;;4938573;28;90608;-47
2022/11/05 10:49:59;;;;;;;77.57;53.30;;;18.20;65.80;;;;;;4939888;28;91119;-45
2022/11/05 10:52:37;;;;;;;80.03;53.38;;;18.10;66.20;;;;;;4944322;28;90722;-48
2022/11/05 10:55:26;;;;;;;78.90;53.13;;;18.10;66.20;;;;;;4937851;28;89869;-47
2022/11/05 10:57:52;;;;;;;77.93;53.08;;;18.20;66.30;;;;;;4950892;28;89657;-49
2022/11/05 11:00:22;;;;;;;75.13;52.97;;;18.20;66.50;;;;;;4938361;28;95044;-51
2022/11/05 11:02:52;;;;;;;77.15;53.08;;;18.20;66.40;;;;;;4939114;28;92025;-47
2022/11/05 11:05:37;;;;;;;74.68;52.75;;;18.20;66.60;;;;;;4942695;28;90331;-48
2022/11/05 11:08:22;;;;;;;75.88;53.08;;;18.20;66.40;;;;;;4941502;28;91445;-49
2022/11/05 11:10:52;;;;;;;76.13;53.28;;;18.30;66.40;;;;;;4939320;28;90234;-51
2022/11/05 11:13:25;;;;;;;73.72;52.40;;;18.30;66.50;;;;;;4945834;28;89894;-51
2022/11/05 11:15:51;;;;;;;84.32;53.65;;;18.30;66.90;;;;;;4939611;28;92384;-48
2022/11/05 11:18:29;;;;;;;76.45;53.30;;;18.20;66.80;;;;;;4932001;28;91437;-50
2022/11/05 11:21:12;;;;;;;76.63;53.08;;;18.20;66.90;;;;;;4947291;28;94449;-48
2022/11/05 11:23:40;;;;;;;76.03;53.35;;;18.00;66.70;;;;;;4943818;28;91170;-47
2022/11/05 11:26:10;;;;;;;75.53;53.33;;;18.00;66.70;;;;;;4947757;28;89980;-50
2022/11/05 11:28:43;;;;;;;75.38;52.70;;;18.00;66.70;;;;;;4943937;28;89956;-51
2022/11/05 11:31:15;;;;;;;75.20;52.83;;;18.10;66.80;;;;;;4941569;28;91746;-47
2022/11/05 11:33:47;;;;;;;76.03;52.83;;;18.00;66.70;;;;;;4943203;28;92305;-46
2022/11/05 11:36:23;;;;;;;75.15;52.80;;;18.10;66.80;;;;;;4946002;28;92030;-48
2022/11/05 11:38:49;;;;;;;73.75;52.65;;;18.10;66.70;;;;;;4942085;28;90251;-48
2022/11/05 11:41:29;;;;;;;74.88;52.90;;;18.00;66.70;;;;;;4943454;28;93972;-50
2022/11/05 11:44:01;;;;;;;74.43;52.50;;;18.00;66.90;;;;;;4937957;28;91424;-46
2022/11/05 11:46:31;;;;;;;74.88;53.42;;;18.00;66.90;;;;;;4946613;28;90132;-49
2022/11/05 11:48:57;;;;;;;77.07;53.47;;;18.00;67.20;;;;;;4941350;28;93630;-52
2022/11/05 11:51:29;;;;;;;78.13;53.45;;;18.00;67.30;;;;;;4941237;28;91077;-48
2022/11/05 11:53:59;;;;;;;79.93;53.92;;;18.00;67.20;;;;;;4940756;28;91443;-52
2022/11/05 11:56:26;;;;;;;81.88;54.67;;;18.00;67.20;;;;;;4932300;28;90250;-48
2022/11/05 11:58:54;;;;;;;82.15;54.00;;;18.00;67.20;;;;;;4946542;28;90681;-50
2022/11/05 12:01:40;;;;;;;83.10;54.80;;;18.00;67.20;;;;;;4947093;28;94986;-48
2022/11/05 12:04:35;;;;;;;87.00;55.05;;;18.00;67.40;;;;;;4942500;28;91787;-47
2022/11/05 12:07:06;;;;;;;85.85;54.88;;;18.10;67.90;;;;;;4941819;28;92664;-48
2022/11/05 12:10:14;;;;;;;83.55;55.83;;;18.10;68.50;;;;;;4939768;28;90367;-48
2022/11/05 12:13:17;;;;;;;83.95;54.53;;;18.10;68.60;;;;;;4935501;28;90359;-46
2022/11/05 12:15:50;;;;;;;83.30;54.65;;;18.10;68.50;;;;;;4941123;28;91325;-52
2022/11/05 12:18:50;;;;;;;89.35;54.85;;;18.20;68.40;;;;;;4946357;28;90964;-51
2022/11/05 12:21:30;;;;;;;84.65;54.58;;;18.10;68.30;;;;;;4945144;28;89869;-46
2022/11/05 12:24:34;;;;;;;80.25;53.97;;;18.20;68.30;;;;;;4952720;28;90061;-47
2022/11/05 12:27:18;;;;;;;82.78;54.22;;;18.10;68.20;;;;;;4924739;28;96139;-49
2022/11/05 12:29:49;;;;;;;79.15;54.25;;;18.10;68.40;;;;;;4937983;28;90561;-46
2022/11/05 12:32:24;;;;;;;78.53;53.70;;;18.10;68.60;;;;;;4941286;28;91693;-48
2022/11/05 12:35:20;;;;;;;82.45;54.15;;;18.00;68.60;;;;;;4940925;28;91488;-48
2022/11/05 12:38:01;;;;;;;79.28;53.95;;;18.10;68.70;;;;;;4943796;28;91495;-47
2022/11/05 12:40:36;;;;;;;79.72;54.03;;;18.10;68.70;;;;;;4943067;28;93028;-47
2022/11/05 12:43:34;;;;;;;78.82;53.70;;;18.10;68.60;;;;;;4948518;28;90428;-50
2022/11/05 12:46:25;;;;;;;81.03;53.83;;;18.10;69.20;;;;;;4931474;28;91400;-55
2022/11/05 12:49:11;;;;;;;84.45;53.85;;;18.10;68.20;;;;;;4937823;28;90040;-47
2022/11/05 12:51:55;;;;;;;78.93;53.88;;;18.20;68.00;;;;;;4936959;28;93851;-46
2022/11/05 12:54:35;;;;;;;76.93;53.58;;;18.20;67.80;;;;;;4936056;28;89922;-46
2022/11/05 12:57:03;;;;;;;80.45;53.58;;;18.30;67.50;;;;;;4923224;28;91771;-48
2022/11/05 12:59:46;;;;;;;78.20;53.50;;;18.30;67.20;;;;;;4933336;28;91147;-47
2022/11/05 13:02:19;;;;;;;79.35;53.78;;;18.30;67.40;;;;;;4940446;28;90996;-49
2022/11/05 13:04:51;;;;;;;79.75;53.75;;;18.30;67.70;;;;;;4935705;28;90258;-52
2022/11/05 13:07:43;;;;;;;80.20;53.42;;;18.30;67.60;;;;;;4922915;28;90580;-45
2022/11/05 13:10:22;;;;;;;75.50;53.00;;;18.30;67.40;;;;;;4928052;28;90959;-46
2022/11/05 13:13:16;;;;;;;76.82;52.95;;;18.30;67.50;;;;;;4931971;28;91596;-49
2022/11/05 13:15:50;;;;;;;76.13;52.83;;;18.30;67.40;;;;;;4917088;28;92427;-46
2022/11/05 13:18:22;;;;;;;76.82;53.15;;;18.20;67.50;;;;;;4932392;28;91055;-47
2022/11/05 13:20:51;;;;;;;78.25;53.10;;;18.30;67.40;;;;;;4909469;28;95112;-46
2022/11/05 13:23:36;;;;;;;77.35;53.28;;;18.30;67.20;;;;;;4930010;28;96770;-49
2022/11/05 13:26:28;;;;;;;77.63;53.15;;;18.30;67.30;;;;;;4938242;28;89904;-49
2022/11/05 13:29:05;;;;;;;;;;;18.30;67.20;;;;;;4936215;28;93801;-46
2022/11/05 13:31:42;;;;;;;75.03;52.90;;;18.20;67.10;;;;;;4935367;28;95335;-49
2022/11/05 13:34:11;;;;;;;76.18;52.78;;;18.20;67.20;;;;;;4931992;28;93780;-46
2022/11/05 13:39:43;;;;;;;77.30;53.15;;;18.20;67.20;;;;;;4924286;28;91618;-49